Time;durP1;ratioP1;P1;durP2;ratioP2;P2;SDS_P1;SDS_P2;PMS_P1;PMS_P2;Temp;Humidity;BMP_temperature;BMP_pressure;BME280_temperature;BME280_humidity;BME280_pressure;Samples;Min_cycle;Max_cycle;Signal;HPM_P1;HPM_P2
2024/02/10 00:01:24;;;;;;;4.22;2.25;;;;;;;;;;5017831;28;20026;-78
2024/02/10 00:03:50;;;;;;;3.25;2.05;;;;;;;;;;5017548;28;20472;-77
2024/02/10 00:06:16;;;;;;;3.47;2.05;;;;;;;;;;5022139;28;20022;-76
2024/02/10 00:08:43;;;;;;;3.47;1.80;;;;;;;;;;5015563;28;20060;-77
2024/02/10 00:11:10;;;;;;;1.80;1.70;;;;;;;;;;5020396;28;20057;-77
2024/02/10 00:13:38;;;;;;;2.28;1.70;;;;;;;;;;5015105;28;20132;-77
2024/02/10 00:16:05;;;;;;;2.90;1.85;;;;;;;;;;5014369;28;20033;-76
2024/02/10 00:18:31;;;;;;;1.95;1.70;;;;;;;;;;5013482;28;20550;-77
2024/02/10 00:20:57;;;;;;;2.33;1.73;;;;;;;;;;5013271;28;20512;-76
2024/02/10 00:23:24;;;;;;;1.80;1.60;;;;;;;;;;5013275;28;20033;-77
2024/02/10 00:26:25;;;;;;;2.42;1.60;;;;;;;;;;5015339;28;20084;-77
2024/02/10 00:28:45;;;;;;;2.20;2.00;;;;;;;;;;5015150;28;20436;-77
2024/02/10 00:31:12;;;;;;;2.42;1.90;;;;;;;;;;5012995;28;20025;-77
2024/02/10 00:33:38;;;;;;;2.83;1.85;;;;;;;;;;5013732;28;20033;-77
2024/02/10 00:36:04;;;;;;;2.72;1.88;;;;;;;;;;5016596;28;20440;-77
2024/02/10 00:38:30;;;;;;;2.53;1.63;;;;;;;;;;5012683;28;20030;-77
2024/02/10 00:41:03;;;;;;;2.30;1.60;;;;;;;;;;5013518;28;20018;-76
2024/02/10 00:43:29;;;;;;;3.83;1.88;;;;;;;;;;5011871;28;20029;-77
2024/02/10 00:45:57;;;;;;;2.45;1.60;;;;;;;;;;5015728;28;20014;-77
2024/02/10 00:48:28;;;;;;;2.10;1.38;;;;;;;;;;5019009;28;20025;-78
2024/02/10 00:50:59;;;;;;;3.17;2.60;;;;;;;;;;5013853;28;20052;-77
2024/02/10 00:53:25;;;;;;;1.45;1.30;;;;;;;;;;5013673;28;20492;-77
2024/02/10 00:55:51;;;;;;;1.77;1.65;;;;;;;;;;5015499;28;20037;-77
2024/02/10 00:58:17;;;;;;;1.85;1.30;;;;;;;;;;5024262;28;20408;-75
2024/02/10 01:00:45;;;;;;;2.08;1.45;;;;;;;;;;5025820;28;20033;-77
2024/02/10 01:03:13;;;;;;;2.10;1.63;;;;;;;;;;5020165;28;20034;-76
2024/02/10 01:05:39;;;;;;;1.40;1.30;;;;;;;;;;5010550;28;20064;-77
2024/02/10 01:08:06;;;;;;;3.53;1.60;;;;;;;;;;5011180;28;20022;-77
2024/02/10 01:10:32;;;;;;;1.50;1.40;;;;;;;;;;5011768;28;20073;-76
2024/02/10 01:13:03;;;;;;;3.50;1.80;;;;;;;;;;5012138;28;20034;-76
2024/02/10 01:15:30;;;;;;;1.98;1.40;;;;;;;;;;5011322;28;20048;-76
2024/02/10 01:18:00;;;;;;;1.45;1.30;;;;;;;;;;5011999;28;20189;-76
2024/02/10 01:20:26;;;;;;;2.55;1.60;;;;;;;;;;5012760;28;20030;-77
2024/02/10 01:22:57;;;;;;;1.48;1.25;;;;;;;;;;5011657;28;20072;-76
2024/02/10 01:25:30;;;;;;;2.38;1.58;;;;;;;;;;5011668;28;20026;-75
2024/02/10 01:27:56;;;;;;;2.00;1.80;;;;;;;;;;5011162;28;20026;-77
2024/02/10 01:30:22;;;;;;;2.30;1.80;;;;;;;;;;5012877;28;20022;-76
2024/02/10 01:32:48;;;;;;;2.83;2.03;;;;;;;;;;5016393;28;20025;-76
2024/02/10 01:35:17;;;;;;;5.05;2.33;;;;;;;;;;5015443;28;20025;-76
2024/02/10 01:37:43;;;;;;;3.67;2.42;;;;;;;;;;5015245;28;20018;-77
2024/02/10 01:40:11;;;;;;;4.10;2.85;;;;;;;;;;5027588;28;20029;-76
2024/02/10 01:42:37;;;;;;;3.17;2.45;;;;;;;;;;5029694;28;20030;-75
2024/02/10 01:45:07;;;;;;;3.17;2.30;;;;;;;;;;5014980;28;20022;-75
2024/02/10 01:47:36;;;;;;;2.60;1.95;;;;;;;;;;5015621;28;20014;-76
2024/02/10 01:50:02;;;;;;;2.67;2.03;;;;;;;;;;5014906;28;20030;-75
2024/02/10 01:52:28;;;;;;;2.83;1.80;;;;;;;;;;5015312;28;20018;-75
2024/02/10 01:54:55;;;;;;;2.95;2.00;;;;;;;;;;5014738;28;20022;-76
2024/02/10 01:57:21;;;;;;;3.53;1.88;;;;;;;;;;5015047;28;20036;-76
2024/02/10 01:59:47;;;;;;;3.17;1.90;;;;;;;;;;5013433;28;20033;-77
2024/02/10 02:02:15;;;;;;;2.92;2.30;;;;;;;;;;5013489;28;20540;-75
2024/02/10 02:04:43;;;;;;;2.60;2.05;;;;;;;;;;5014576;28;20025;-76
2024/02/10 02:07:09;;;;;;;2.40;1.83;;;;;;;;;;5019418;28;20034;-76
2024/02/10 02:09:36;;;;;;;1.98;1.63;;;;;;;;;;5006719;28;20025;-76
2024/02/10 02:12:07;;;;;;;1.73;1.63;;;;;;;;;;5014569;28;20026;-77
2024/02/10 02:14:36;;;;;;;2.58;1.40;;;;;;;;;;5015212;28;20022;-76
2024/02/10 02:17:04;;;;;;;1.42;1.23;;;;;;;;;;5015554;28;20056;-77
2024/02/10 02:19:32;;;;;;;1.38;1.23;;;;;;;;;;5013710;28;20026;-75
2024/02/10 02:22:00;;;;;;;1.35;1.23;;;;;;;;;;5014784;28;20083;-75
2024/02/10 02:24:28;;;;;;;1.50;1.40;;;;;;;;;;5014530;28;20503;-75
2024/02/10 02:26:54;;;;;;;1.90;1.65;;;;;;;;;;5014000;28;20049;-76
2024/02/10 02:29:20;;;;;;;1.48;1.20;;;;;;;;;;5014866;28;20029;-76
2024/02/10 02:31:47;;;;;;;1.27;1.17;;;;;;;;;;5014786;28;20022;-76
2024/02/10 02:34:13;;;;;;;1.02;0.93;;;;;;;;;;5014962;28;20026;-76
2024/02/10 02:36:39;;;;;;;1.67;1.38;;;;;;;;;;5013701;28;20037;-76
2024/02/10 02:39:06;;;;;;;1.33;1.20;;;;;;;;;;5012950;28;20018;-76
2024/02/10 02:41:32;;;;;;;1.75;1.30;;;;;;;;;;5013000;28;20044;-75
2024/02/10 02:43:58;;;;;;;1.30;1.15;;;;;;;;;;5014233;28;20018;-75
2024/02/10 02:46:24;;;;;;;1.30;1.15;;;;;;;;;;5013598;28;20025;-75
2024/02/10 02:48:52;;;;;;;1.55;1.25;;;;;;;;;;5014178;28;20030;-76
2024/02/10 02:51:20;;;;;;;1.27;1.02;;;;;;;;;;5013810;28;20213;-76
2024/02/10 02:53:48;;;;;;;1.30;1.20;;;;;;;;;;5013175;28;20159;-77
2024/02/10 02:56:15;;;;;;;1.40;1.00;;;;;;;;;;5013565;28;20014;-76
2024/02/10 02:58:41;;;;;;;1.15;1.05;;;;;;;;;;5014758;28;20380;-76
2024/02/10 03:01:10;;;;;;;1.65;1.00;;;;;;;;;;5013538;28;20095;-76
2024/02/10 03:03:39;;;;;;;1.20;1.00;;;;;;;;;;5006098;28;20101;-77
2024/02/10 03:06:06;;;;;;;1.38;1.27;;;;;;;;;;5013801;28;20101;-77
2024/02/10 03:08:32;;;;;;;0.98;0.90;;;;;;;;;;5013559;28;20040;-77
2024/02/10 03:10:59;;;;;;;0.77;0.77;;;;;;;;;;5013952;28;20080;-76
2024/02/10 03:13:25;;;;;;;1.10;1.00;;;;;;;;;;5013811;28;20095;-76
2024/02/10 03:15:51;;;;;;;1.10;1.00;;;;;;;;;;5013266;28;20461;-77
2024/02/10 03:18:18;;;;;;;0.95;0.57;;;;;;;;;;5014060;28;20036;-76
2024/02/10 03:20:44;;;;;;;0.88;0.88;;;;;;;;;;5013594;28;20067;-76
2024/02/10 03:23:13;;;;;;;0.98;0.98;;;;;;;;;;5013097;28;20045;-76
2024/02/10 03:25:43;;;;;;;1.02;0.82;;;;;;;;;;5005911;28;20026;-76
2024/02/10 03:28:09;;;;;;;0.88;0.80;;;;;;;;;;5013901;28;20051;-76
2024/02/10 03:30:35;;;;;;;0.60;0.60;;;;;;;;;;5013644;28;20049;-76
2024/02/10 03:33:01;;;;;;;0.90;0.90;;;;;;;;;;5013190;28;20025;-76
2024/02/10 03:35:27;;;;;;;1.00;0.73;;;;;;;;;;5013276;28;20026;-75
2024/02/10 03:37:54;;;;;;;1.23;0.90;;;;;;;;;;5014326;28;20575;-79
2024/02/10 03:40:20;;;;;;;1.17;1.02;;;;;;;;;;5016204;28;20069;-78
2024/02/10 03:42:47;;;;;;;1.27;1.17;;;;;;;;;;5022753;28;20028;-79
2024/02/10 03:45:18;;;;;;;2.03;1.50;;;;;;;;;;5032899;28;20026;-78
2024/02/10 03:47:44;;;;;;;1.45;1.35;;;;;;;;;;5022286;28;20026;-78
2024/02/10 03:50:13;;;;;;;1.30;1.20;;;;;;;;;;5020891;28;20093;-79
2024/02/10 03:52:40;;;;;;;1.33;1.00;;;;;;;;;;5018508;28;20101;-79
2024/02/10 03:55:09;;;;;;;1.27;1.17;;;;;;;;;;5016093;28;20057;-78
2024/02/10 03:57:36;;;;;;;1.73;1.40;;;;;;;;;;5014589;28;20527;-79
2024/02/10 04:00:05;;;;;;;1.17;1.05;;;;;;;;;;5013629;28;20029;-77
2024/02/10 04:02:33;;;;;;;1.25;1.15;;;;;;;;;;5019338;28;20489;-78
2024/02/10 04:05:01;;;;;;;1.02;0.95;;;;;;;;;;5012761;28;20026;-77
2024/02/10 04:07:28;;;;;;;1.15;0.95;;;;;;;;;;5023361;28;20032;-76
2024/02/10 04:09:54;;;;;;;2.10;1.48;;;;;;;;;;5014576;28;20648;-77
2024/02/10 04:12:20;;;;;;;1.38;1.27;;;;;;;;;;5013944;28;20075;-77
2024/02/10 04:14:47;;;;;;;1.40;1.30;;;;;;;;;;5011399;28;20022;-77
2024/02/10 04:17:13;;;;;;;1.17;1.08;;;;;;;;;;5013365;28;20026;-78
2024/02/10 04:19:39;;;;;;;0.98;0.98;;;;;;;;;;5013227;28;20049;-78
2024/02/10 04:22:06;;;;;;;1.77;1.20;;;;;;;;;;5015022;28;20017;-78
2024/02/10 04:24:32;;;;;;;1.40;1.08;;;;;;;;;;5015167;28;20026;-78
2024/02/10 04:26:59;;;;;;;1.08;1.05;;;;;;;;;;5012274;28;20072;-78
2024/02/10 04:29:25;;;;;;;1.77;1.13;;;;;;;;;;5013548;28;20029;-77
2024/02/10 04:31:56;;;;;;;1.27;1.02;;;;;;;;;;5013629;28;20484;-78
2024/02/10 04:34:23;;;;;;;1.42;1.15;;;;;;;;;;5012944;28;20026;-78
2024/02/10 04:36:50;;;;;;;1.25;1.15;;;;;;;;;;5013029;28;20022;-78
2024/02/10 04:39:16;;;;;;;1.23;1.13;;;;;;;;;;5013378;28;20084;-79
2024/02/10 04:41:43;;;;;;;1.30;1.20;;;;;;;;;;5012707;28;20014;-79
2024/02/10 04:44:09;;;;;;;1.85;1.33;;;;;;;;;;5013262;28;20751;-77
2024/02/10 04:46:35;;;;;;;1.50;1.27;;;;;;;;;;5013033;28;20436;-78
2024/02/10 04:49:02;;;;;;;1.63;1.20;;;;;;;;;;5013420;28;20022;-78
2024/02/10 04:51:28;;;;;;;1.58;1.30;;;;;;;;;;5013308;28;20481;-78
2024/02/10 04:53:54;;;;;;;1.50;1.20;;;;;;;;;;5014593;28;20022;-80
2024/02/10 04:56:20;;;;;;;1.13;1.10;;;;;;;;;;5015924;28;20037;-78
2024/02/10 04:58:50;;;;;;;1.33;1.00;;;;;;;;;;5014056;28;20025;-76
2024/02/10 05:01:20;;;;;;;1.33;1.23;;;;;;;;;;5023958;28;20054;-77
2024/02/10 05:03:48;;;;;;;1.40;1.30;;;;;;;;;;5015785;28;20045;-77
2024/02/10 05:06:14;;;;;;;1.55;1.27;;;;;;;;;;5019860;28;20097;-76
2024/02/10 05:08:40;;;;;;;1.27;1.10;;;;;;;;;;5017600;28;20030;-78
2024/02/10 05:11:06;;;;;;;1.60;1.15;;;;;;;;;;5017740;28;20095;-77
2024/02/10 05:13:32;;;;;;;1.30;1.20;;;;;;;;;;5016026;28;20022;-77
2024/02/10 05:15:59;;;;;;;1.40;1.25;;;;;;;;;;5016467;28;20029;-78
2024/02/10 05:18:25;;;;;;;1.30;1.08;;;;;;;;;;5015921;28;20033;-76
2024/02/10 05:20:52;;;;;;;1.42;1.33;;;;;;;;;;5014697;28;20037;-78
2024/02/10 05:23:19;;;;;;;1.65;1.38;;;;;;;;;;5016287;28;20033;-77
2024/02/10 05:25:45;;;;;;;1.70;1.50;;;;;;;;;;5015383;28;20060;-77
2024/02/10 05:28:11;;;;;;;1.20;1.00;;;;;;;;;;5028808;28;20036;-76
2024/02/10 05:30:37;;;;;;;1.40;1.15;;;;;;;;;;5026359;28;20045;-76
2024/02/10 05:33:04;;;;;;;2.10;1.55;;;;;;;;;;5027962;28;20056;-77
2024/02/10 05:35:31;;;;;;;1.25;1.13;;;;;;;;;;5024848;28;20065;-77
2024/02/10 05:37:58;;;;;;;2.60;1.70;;;;;;;;;;5033384;28;20030;-78
2024/02/10 05:40:25;;;;;;;1.25;1.20;;;;;;;;;;5022021;28;20072;-77
2024/02/10 05:42:52;;;;;;;1.30;1.20;;;;;;;;;;5026671;28;20056;-77
2024/02/10 05:45:21;;;;;;;1.73;1.15;;;;;;;;;;5039863;28;20084;-77
2024/02/10 05:47:50;;;;;;;1.10;1.00;;;;;;;;;;5034072;28;20029;-76
2024/02/10 05:50:18;;;;;;;1.25;1.15;;;;;;;;;;5022628;28;20470;-77
2024/02/10 05:52:47;;;;;;;1.40;1.30;;;;;;;;;;5021363;28;20022;-77
2024/02/10 05:55:15;;;;;;;2.38;1.40;;;;;;;;;;5026203;28;20029;-77
2024/02/10 05:57:41;;;;;;;1.35;1.10;;;;;;;;;;5038904;28;20018;-77
2024/02/10 06:00:11;;;;;;;1.10;1.00;;;;;;;;;;5029825;28;20024;-77
2024/02/10 06:02:38;;;;;;;1.50;1.40;;;;;;;;;;5037018;28;20044;-77
2024/02/10 06:05:06;;;;;;;1.42;1.10;;;;;;;;;;5038454;28;20021;-77
2024/02/10 06:07:35;;;;;;;1.20;1.10;;;;;;;;;;5044312;28;20037;-78
2024/02/10 06:10:07;;;;;;;1.20;1.00;;;;;;;;;;5029203;28;20145;-78
2024/02/10 06:12:33;;;;;;;1.13;1.02;;;;;;;;;;5018063;28;20032;-78
2024/02/10 06:14:59;;;;;;;1.40;1.08;;;;;;;;;;5018141;28;20105;-78
2024/02/10 06:17:26;;;;;;;1.48;1.00;;;;;;;;;;5019436;28;20053;-78
2024/02/10 06:19:52;;;;;;;0.93;0.93;;;;;;;;;;5017538;28;20037;-77
2024/02/10 06:22:18;;;;;;;1.65;1.20;;;;;;;;;;5018079;28;20033;-78
2024/02/10 06:24:44;;;;;;;1.95;1.30;;;;;;;;;;5023717;28;20093;-77
2024/02/10 06:27:11;;;;;;;1.75;1.20;;;;;;;;;;5016277;28;20018;-77
2024/02/10 06:29:37;;;;;;;1.27;1.17;;;;;;;;;;5018923;28;20148;-77
2024/02/10 06:32:06;;;;;;;3.20;1.67;;;;;;;;;;5016996;28;20014;-77
2024/02/10 06:34:34;;;;;;;2.20;1.70;;;;;;;;;;5024014;28;20026;-77
2024/02/10 06:37:02;;;;;;;1.50;1.13;;;;;;;;;;5017862;28;20018;-77
2024/02/10 06:39:28;;;;;;;1.63;1.40;;;;;;;;;;5016696;28;20026;-77
2024/02/10 06:41:54;;;;;;;2.47;1.45;;;;;;;;;;5015678;28;20022;-77
2024/02/10 06:44:20;;;;;;;1.33;1.23;;;;;;;;;;5015846;28;20080;-77
2024/02/10 06:46:48;;;;;;;1.25;1.15;;;;;;;;;;5023071;28;20090;-77
2024/02/10 06:49:15;;;;;;;2.60;1.80;;;;;;;;;;5015020;28;20046;-77
2024/02/10 06:51:42;;;;;;;1.63;1.10;;;;;;;;;;5024977;28;20025;-78
2024/02/10 06:54:12;;;;;;;1.65;1.10;;;;;;;;;;5013981;28;20473;-78
2024/02/10 06:56:38;;;;;;;1.30;1.20;;;;;;;;;;5018469;28;20057;-77
2024/02/10 06:59:04;;;;;;;1.10;0.95;;;;;;;;;;5015946;28;20037;-77
2024/02/10 07:01:32;;;;;;;1.15;1.02;;;;;;;;;;5014994;28;20468;-78
2024/02/10 07:03:58;;;;;;;0.75;0.70;;;;;;;;;;5015315;28;20026;-77
2024/02/10 07:06:28;;;;;;;0.80;0.80;;;;;;;;;;5013107;28;20029;-77
2024/02/10 07:08:54;;;;;;;0.75;0.75;;;;;;;;;;5021962;28;20022;-79
2024/02/10 07:11:20;;;;;;;2.17;1.00;;;;;;;;;;5019758;28;20033;-78
2024/02/10 07:13:46;;;;;;;1.15;1.05;;;;;;;;;;5026222;28;20045;-77
2024/02/10 07:16:12;;;;;;;0.98;0.93;;;;;;;;;;5027178;28;20029;-77
2024/02/10 07:18:41;;;;;;;1.25;1.00;;;;;;;;;;5021024;28;20061;-78
2024/02/10 07:21:07;;;;;;;1.17;1.05;;;;;;;;;;5019102;28;20022;-77
2024/02/10 07:23:34;;;;;;;0.82;0.82;;;;;;;;;;5025186;28;20029;-77
2024/02/10 07:26:05;;;;;;;0.90;0.90;;;;;;;;;;5015321;28;20030;-77
2024/02/10 07:28:31;;;;;;;0.98;0.93;;;;;;;;;;5014737;28;20022;-78
2024/02/10 07:30:57;;;;;;;1.33;1.08;;;;;;;;;;5015970;28;20026;-77
2024/02/10 07:33:24;;;;;;;0.80;0.80;;;;;;;;;;5016363;28;20033;-78
2024/02/10 07:35:51;;;;;;;0.60;0.60;;;;;;;;;;5021831;28;20022;-78
2024/02/10 07:38:20;;;;;;;0.70;0.70;;;;;;;;;;5020391;28;20088;-77
2024/02/10 07:40:47;;;;;;;0.88;0.80;;;;;;;;;;5015669;28;20032;-78
2024/02/10 07:43:15;;;;;;;0.75;0.68;;;;;;;;;;5014441;28;20033;-78
2024/02/10 07:45:42;;;;;;;1.30;0.70;;;;;;;;;;5014982;28;20025;-77
2024/02/10 07:48:08;;;;;;;0.80;0.80;;;;;;;;;;5021517;28;20110;-77
2024/02/10 07:50:38;;;;;;;0.65;0.55;;;;;;;;;;5025331;28;20028;-77
2024/02/10 07:53:05;;;;;;;0.60;0.60;;;;;;;;;;5027636;28;20032;-78
2024/02/10 07:55:35;;;;;;;0.50;0.50;;;;;;;;;;5032811;28;20041;-78
2024/02/10 07:58:04;;;;;;;0.65;0.65;;;;;;;;;;5041558;28;20021;-78
2024/02/10 08:00:32;;;;;;;2.13;1.08;;;;;;;;;;5024081;28;20034;-79
2024/02/10 08:03:02;;;;;;;2.10;1.05;;;;;;;;;;5021242;28;20136;-77
2024/02/10 08:05:28;;;;;;;2.42;1.55;;;;;;;;;;5021525;28;20034;-79
2024/02/10 08:07:56;;;;;;;3.63;2.70;;;;;;;;;;5025180;28;20041;-78
2024/02/10 08:10:22;;;;;;;2.70;1.83;;;;;;;;;;5041297;28;20026;-78
2024/02/10 08:12:50;;;;;;;2.45;1.80;;;;;;;;;;5028834;28;20473;-78
2024/02/10 08:15:16;;;;;;;3.80;1.88;;;;;;;;;;5032330;28;20022;-78
2024/02/10 08:17:43;;;;;;;2.17;1.70;;;;;;;;;;5026151;28;20025;-78
2024/02/10 08:20:10;;;;;;;1.98;1.60;;;;;;;;;;5025793;28;20029;-78
2024/02/10 08:22:36;;;;;;;2.80;1.90;;;;;;;;;;5027148;28;20049;-78
2024/02/10 08:25:04;;;;;;;2.40;1.98;;;;;;;;;;5032977;28;20022;-78
2024/02/10 08:27:31;;;;;;;4.10;1.98;;;;;;;;;;5026906;28;20025;-77
2024/02/10 08:29:59;;;;;;;3.65;1.85;;;;;;;;;;5026208;28;20026;-78
2024/02/10 08:32:26;;;;;;;2.00;1.48;;;;;;;;;;5024735;28;20058;-78
2024/02/10 08:34:53;;;;;;;3.40;1.67;;;;;;;;;;5029477;28;20032;-78
2024/02/10 08:37:20;;;;;;;2.67;1.50;;;;;;;;;;5027845;28;20052;-79
2024/02/10 08:39:47;;;;;;;1.77;1.30;;;;;;;;;;5029079;28;20022;-78
2024/02/10 08:42:13;;;;;;;1.65;1.35;;;;;;;;;;5029096;28;20045;-77
2024/02/10 08:44:39;;;;;;;1.95;1.20;;;;;;;;;;5056281;28;20022;-78
2024/02/10 08:47:06;;;;;;;1.45;1.33;;;;;;;;;;5040417;28;20014;-77
2024/02/10 08:49:34;;;;;;;1.27;1.13;;;;;;;;;;5040984;28;20029;-77
2024/02/10 08:52:01;;;;;;;1.95;1.30;;;;;;;;;;5044309;28;20086;-76
2024/02/10 08:54:30;;;;;;;1.30;1.20;;;;;;;;;;5040459;28;20022;-76
2024/02/10 08:56:59;;;;;;;1.95;1.75;;;;;;;;;;5045908;28;20021;-77
2024/02/10 08:59:31;;;;;;;4.53;2.30;;;;;;;;;;5042959;28;20042;-78
2024/02/10 09:02:00;;;;;;;3.65;2.13;;;;;;;;;;5039241;28;20022;-77
2024/02/10 09:04:27;;;;;;;3.03;1.90;;;;;;;;;;5037273;28;20065;-77
2024/02/10 09:06:53;;;;;;;2.33;1.75;;;;;;;;;;5048439;28;20109;-76
2024/02/10 09:09:19;;;;;;;2.53;2.20;;;;;;;;;;5043248;28;20018;-77
2024/02/10 09:11:47;;;;;;;2.13;1.50;;;;;;;;;;5043272;28;20017;-77
2024/02/10 09:14:13;;;;;;;2.08;1.38;;;;;;;;;;5045451;28;20361;-77
2024/02/10 09:16:39;;;;;;;1.58;1.23;;;;;;;;;;5040140;28;20037;-77
2024/02/10 09:19:06;;;;;;;1.45;1.10;;;;;;;;;;5045510;28;20041;-77
2024/02/10 09:21:32;;;;;;;1.30;1.20;;;;;;;;;;5041243;28;20022;-77
2024/02/10 09:23:58;;;;;;;1.70;1.33;;;;;;;;;;5040050;28;20042;-78
2024/02/10 09:26:25;;;;;;;2.75;1.85;;;;;;;;;;5039432;28;20021;-76
2024/02/10 09:28:51;;;;;;;3.35;2.25;;;;;;;;;;5040017;28;20014;-77
2024/02/10 09:31:19;;;;;;;2.88;2.20;;;;;;;;;;5046956;28;20037;-77
2024/02/10 09:33:45;;;;;;;2.63;1.67;;;;;;;;;;5040254;28;20038;-77
2024/02/10 09:36:12;;;;;;;4.35;2.50;;;;;;;;;;5043331;28;20041;-78
2024/02/10 09:38:39;;;;;;;4.40;2.60;;;;;;;;;;5038918;28;20026;-77
2024/02/10 09:41:07;;;;;;;4.35;2.60;;;;;;;;;;5038936;28;20018;-77
2024/02/10 09:43:35;;;;;;;3.53;2.20;;;;;;;;;;5031461;28;20117;-78
2024/02/10 09:46:08;;;;;;;2.22;2.00;;;;;;;;;;5031425;28;20014;-77
2024/02/10 09:48:47;;;;;;;3.80;1.92;;;;;;;;;;5038879;28;20018;-77
2024/02/10 09:51:13;;;;;;;2.58;1.83;;;;;;;;;;5038014;28;20014;-77
2024/02/10 09:53:43;;;;;;;1.60;1.50;;;;;;;;;;5037909;28;20045;-77
2024/02/10 09:56:10;;;;;;;2.00;1.50;;;;;;;;;;5028593;28;20548;-77
2024/02/10 09:58:39;;;;;;;2.08;1.60;;;;;;;;;;5036138;28;20034;-77
2024/02/10 10:01:06;;;;;;;2.30;2.10;;;;;;;;;;5020452;28;20025;-77
2024/02/10 10:03:32;;;;;;;2.20;1.20;;;;;;;;;;5026742;28;20049;-77
2024/02/10 10:05:59;;;;;;;3.63;2.22;;;;;;;;;;5038272;28;20017;-77
2024/02/10 10:08:26;;;;;;;2.72;2.05;;;;;;;;;;5031574;28;20045;-77
2024/02/10 10:10:52;;;;;;;2.42;1.63;;;;;;;;;;5024185;28;20025;-77
2024/02/10 10:13:18;;;;;;;2.60;2.15;;;;;;;;;;5024877;28;20101;-78
2024/02/10 10:15:44;;;;;;;2.92;1.80;;;;;;;;;;5028319;28;20388;-78
2024/02/10 10:18:19;;;;;;;1.48;1.33;;;;;;;;;;5020283;28;20045;-78
2024/02/10 10:20:48;;;;;;;2.63;1.58;;;;;;;;;;5021728;28;20026;-78
2024/02/10 10:23:17;;;;;;;1.52;1.30;;;;;;;;;;5024610;28;20052;-78
2024/02/10 10:25:47;;;;;;;2.15;1.10;;;;;;;;;;5028430;28;20041;-78
2024/02/10 10:28:13;;;;;;;1.98;1.55;;;;;;;;;;5028388;28;20026;-77
2024/02/10 10:30:58;;;;;;;1.20;1.10;;;;;;;;;;5030623;28;20105;-77
2024/02/10 10:33:25;;;;;;;1.13;1.00;;;;;;;;;;5027645;28;20544;-78
2024/02/10 10:35:54;;;;;;;1.40;1.30;;;;;;;;;;5018200;28;20072;-77
2024/02/10 10:38:24;;;;;;;1.45;1.20;;;;;;;;;;5034078;28;20021;-77
2024/02/10 10:40:53;;;;;;;1.40;1.10;;;;;;;;;;5025371;28;20110;-78
2024/02/10 10:43:25;;;;;;;1.15;0.70;;;;;;;;;;5026173;28;20034;-78
2024/02/10 10:45:51;;;;;;;1.20;1.03;;;;;;;;;;5007484;28;20034;-77
2024/02/10 10:48:17;;;;;;;1.40;1.13;;;;;;;;;;5010886;28;20022;-77
2024/02/10 10:50:43;;;;;;;2.53;1.90;;;;;;;;;;5029470;28;20034;-78
2024/02/10 10:53:10;;;;;;;2.45;1.80;;;;;;;;;;5032183;28;20339;-78
2024/02/10 10:55:36;;;;;;;1.67;1.40;;;;;;;;;;5020483;28;20030;-78
2024/02/10 10:58:06;;;;;;;1.80;1.65;;;;;;;;;;5018656;28;20030;-77
2024/02/10 11:00:34;;;;;;;2.83;1.80;;;;;;;;;;5017151;28;20072;-78
2024/02/10 11:03:02;;;;;;;2.13;1.85;;;;;;;;;;5029528;28;20026;-79
2024/02/10 11:05:34;;;;;;;3.88;2.33;;;;;;;;;;5018274;28;20032;-78
2024/02/10 11:08:03;;;;;;;3.47;2.40;;;;;;;;;;5018522;28;20036;-77
2024/02/10 11:10:36;;;;;;;2.83;2.20;;;;;;;;;;5028840;28;20037;-77
2024/02/10 11:13:03;;;;;;;2.72;2.03;;;;;;;;;;5022556;28;20034;-77
2024/02/10 11:15:30;;;;;;;2.33;2.00;;;;;;;;;;5019621;28;20033;-77
2024/02/10 11:18:02;;;;;;;2.70;1.95;;;;;;;;;;5019080;28;20041;-78
2024/02/10 11:20:37;;;;;;;3.20;2.10;;;;;;;;;;5018674;28;20091;-77
2024/02/10 11:23:11;;;;;;;3.83;1.70;;;;;;;;;;5018925;28;20050;-78
2024/02/10 11:25:39;;;;;;;1.58;1.48;;;;;;;;;;5025873;28;20018;-77
2024/02/10 11:28:05;;;;;;;1.65;1.45;;;;;;;;;;5022748;28;20013;-77
2024/02/10 11:30:32;;;;;;;2.53;1.67;;;;;;;;;;5028365;28;20056;-78
2024/02/10 11:32:58;;;;;;;4.55;2.80;;;;;;;;;;5020327;28;20089;-77
2024/02/10 11:35:25;;;;;;;4.45;2.80;;;;;;;;;;5023263;28;20477;-77
2024/02/10 11:37:52;;;;;;;3.10;2.30;;;;;;;;;;5035685;28;20562;-77
2024/02/10 11:40:19;;;;;;;3.65;2.25;;;;;;;;;;5018308;28;20552;-78
2024/02/10 11:42:46;;;;;;;3.15;2.28;;;;;;;;;;5025841;28;20100;-78
2024/02/10 11:45:12;;;;;;;3.92;2.78;;;;;;;;;;5035206;28;20048;-77
2024/02/10 11:47:38;;;;;;;1.95;1.65;;;;;;;;;;5020543;28;20472;-77
2024/02/10 11:50:06;;;;;;;1.83;1.67;;;;;;;;;;5034374;28;20394;-78
2024/02/10 11:52:32;;;;;;;5.68;2.28;;;;;;;;;;5020463;28;20018;-78
2024/02/10 11:54:59;;;;;;;3.63;2.30;;;;;;;;;;5018566;28;20053;-78
2024/02/10 11:57:27;;;;;;;4.15;2.20;;;;;;;;;;5022281;28;20022;-78
2024/02/10 11:59:53;;;;;;;3.90;2.15;;;;;;;;;;5028126;28;20017;-78
2024/02/10 12:02:20;;;;;;;3.40;2.60;;;;;;;;;;5030682;28;20018;-77
2024/02/10 12:04:47;;;;;;;2.67;2.25;;;;;;;;;;5019929;28;20500;-77
2024/02/10 12:07:16;;;;;;;3.88;2.40;;;;;;;;;;5024566;28;20057;-78
2024/02/10 12:09:42;;;;;;;3.63;2.33;;;;;;;;;;5021940;28;20493;-78
2024/02/10 12:12:13;;;;;;;3.65;2.22;;;;;;;;;;5032433;28;20032;-77
2024/02/10 12:14:40;;;;;;;3.47;2.00;;;;;;;;;;5019632;28;20025;-78
2024/02/10 12:17:06;;;;;;;3.85;2.10;;;;;;;;;;5029931;28;20100;-77
2024/02/10 12:19:42;;;;;;;2.05;1.60;;;;;;;;;;5029326;28;20473;-77
2024/02/10 12:22:11;;;;;;;4.13;2.15;;;;;;;;;;5016300;28;20096;-76
2024/02/10 12:24:41;;;;;;;3.20;2.17;;;;;;;;;;5027597;28;20364;-77
2024/02/10 12:27:07;;;;;;;2.38;1.58;;;;;;;;;;5025181;28;20014;-77
2024/02/10 12:29:37;;;;;;;4.35;1.92;;;;;;;;;;5015341;28;20033;-77
2024/02/10 12:32:03;;;;;;;1.58;1.42;;;;;;;;;;5016802;28;20014;-77
2024/02/10 12:34:29;;;;;;;1.83;1.30;;;;;;;;;;5014584;28;20030;-77
2024/02/10 12:36:55;;;;;;;1.23;0.90;;;;;;;;;;5016164;28;20030;-77
2024/02/10 12:39:22;;;;;;;2.20;1.40;;;;;;;;;;5017774;28;20512;-77
2024/02/10 12:41:49;;;;;;;2.35;1.40;;;;;;;;;;5037809;28;20021;-77
2024/02/10 12:44:15;;;;;;;1.58;1.38;;;;;;;;;;5029340;28;20030;-77
2024/02/10 12:46:41;;;;;;;4.18;1.60;;;;;;;;;;5021332;28;20030;-78
2024/02/10 12:49:08;;;;;;;2.60;1.90;;;;;;;;;;5017927;28;20101;-78
2024/02/10 12:51:36;;;;;;;3.50;1.58;;;;;;;;;;5016631;28;20041;-78
2024/02/10 12:54:02;;;;;;;2.50;1.80;;;;;;;;;;5018145;28;20026;-78
2024/02/10 12:56:28;;;;;;;1.85;1.67;;;;;;;;;;5019518;28;20124;-78
2024/02/10 12:58:56;;;;;;;5.07;2.13;;;;;;;;;;5030240;28;20034;-78
2024/02/10 13:01:24;;;;;;;1.80;1.58;;;;;;;;;;5019369;28;20037;-78
2024/02/10 13:03:53;;;;;;;2.20;1.73;;;;;;;;;;5021085;28;20025;-78
2024/02/10 13:06:20;;;;;;;2.08;1.50;;;;;;;;;;5019821;28;20081;-78
2024/02/10 13:08:46;;;;;;;1.70;1.60;;;;;;;;;;5017517;28;20026;-77
2024/02/10 13:11:12;;;;;;;1.65;1.08;;;;;;;;;;5018281;28;20045;-77
2024/02/10 13:13:44;;;;;;;1.95;1.23;;;;;;;;;;5018650;28;20112;-77
2024/02/10 13:16:11;;;;;;;1.77;1.48;;;;;;;;;;5022069;28;20571;-77
2024/02/10 13:18:37;;;;;;;3.13;1.30;;;;;;;;;;5026002;28;20075;-78
2024/02/10 13:21:03;;;;;;;1.60;1.50;;;;;;;;;;5015757;28;20026;-77
2024/02/10 13:23:29;;;;;;;1.08;1.00;;;;;;;;;;5017117;28;20103;-78
2024/02/10 13:25:57;;;;;;;0.93;0.93;;;;;;;;;;5018353;28;20391;-78
2024/02/10 13:28:23;;;;;;;0.90;0.90;;;;;;;;;;5021538;28;20067;-78
2024/02/10 13:30:51;;;;;;;1.13;1.00;;;;;;;;;;5030470;28;20022;-77
2024/02/10 13:33:17;;;;;;;1.52;1.08;;;;;;;;;;5028034;28;20030;-78
2024/02/10 13:35:44;;;;;;;1.27;1.20;;;;;;;;;;5030126;28;20568;-78
2024/02/10 14:00:24;;;;;;;1.00;0.75;;;;;;;;;;5012076;28;20037;-77
2024/02/10 14:05:41;;;;;;;0.50;0.50;;;;;;;;;;5036000;28;20025;-78
2024/02/10 14:11:19;;;;;;;1.33;1.23;;;;;;;;;;5023766;28;20029;-77
2024/02/10 14:13:39;;;;;;;;;;;;;;;;;;5033379;28;20028;-77
2024/02/10 14:16:07;;;;;;;0.43;0.40;;;;;;;;;;5026428;28;19905;-78
2024/02/10 14:18:33;;;;;;;0.47;0.40;;;;;;;;;;5028699;28;20080;-78
2024/02/10 14:21:48;;;;;;;1.20;0.70;;;;;;;;;;5024058;28;20033;-78
2024/02/10 14:23:46;;;;;;;1.00;0.90;;;;;;;;;;5027431;28;20040;-78
2024/02/10 14:26:14;;;;;;;0.85;0.75;;;;;;;;;;5024055;28;20045;-77
2024/02/10 14:28:57;;;;;;;1.20;0.73;;;;;;;;;;5032914;28;20391;-78
2024/02/10 14:31:25;;;;;;;0.40;0.40;;;;;;;;;;5024579;28;20018;-77
2024/02/10 14:33:53;;;;;;;0.65;0.60;;;;;;;;;;5025657;28;20030;-78
2024/02/10 14:39:11;;;;;;;0.82;0.50;;;;;;;;;;5014581;28;20544;-78
2024/02/10 14:41:43;;;;;;;0.40;0.40;;;;;;;;;;5021234;28;20052;-78
2024/02/10 14:44:10;;;;;;;0.63;0.60;;;;;;;;;;5016937;28;20031;-77
2024/02/10 14:46:44;;;;;;;0.45;0.45;;;;;;;;;;5020442;28;20438;-78
2024/02/10 14:49:15;;;;;;;0.63;0.45;;;;;;;;;;5017000;28;20108;-78
2024/02/10 14:51:41;;;;;;;0.45;0.45;;;;;;;;;;5016119;28;20109;-77
2024/02/10 14:54:10;;;;;;;0.50;0.50;;;;;;;;;;5019246;28;20032;-77
2024/02/10 14:56:38;;;;;;;0.65;0.60;;;;;;;;;;5033961;28;20029;-77
2024/02/10 14:59:05;;;;;;;0.70;0.65;;;;;;;;;;5018610;28;20491;-76
2024/02/10 15:01:34;;;;;;;0.63;0.63;;;;;;;;;;5017822;28;20030;-77
2024/02/10 15:04:02;;;;;;;1.15;0.70;;;;;;;;;;5018476;28;20580;-77
2024/02/10 15:06:33;;;;;;;0.40;0.32;;;;;;;;;;5013884;28;20022;-77
2024/02/10 15:09:02;;;;;;;0.40;0.40;;;;;;;;;;5018114;28;20030;-78
2024/02/10 15:11:29;;;;;;;0.65;0.65;;;;;;;;;;5018202;28;20025;-77
2024/02/10 15:13:55;;;;;;;0.50;0.50;;;;;;;;;;5013826;28;20056;-78
2024/02/10 15:16:22;;;;;;;0.40;0.40;;;;;;;;;;5018035;28;20037;-76